Flugplatz Blaubeuren

Für EDMC sind keine METAR/TAF Berichte vorhanden.
Es werden die Flugwettermeldungen vom Flugplatz Laupheim Airport in 23 km Entfernung angezeigt.

Bericht für ETHL

vom 22.03. um 21:20 UTC

Wind 2 kt aus 210°

Sichtweite 10 km oder mehr

gering bewölkt in 30000 ft

Temperatur 5.0°C

Taupunkt 2.0°C

Luftfeuchtigkeit 81%

Luftdruck 1028 hPa

ETHL 222120Z 21002KT 9999 FEW300 05/02 Q1028 BLU+
Keine Prognose (TAF) verfügbar.
Impressum